sensor_id;sensor_type;location;lat;lon;timestamp;pressure;altitude;pressure_sealevel;temperature;humidity
6150;BME280;3106;42.670;23.318;2022-11-20T00:02:16;93676.09;;;18.66;69.90
6150;BME280;3106;42.670;23.318;2022-11-20T00:04:43;93691.06;;;18.74;69.52
6150;BME280;3106;42.670;23.318;2022-11-20T00:07:11;93698.56;;;19.13;68.51
6150;BME280;3106;42.670;23.318;2022-11-20T00:13:00;93748.69;;;19.28;68.60
6150;BME280;3106;42.670;23.318;2022-11-20T00:15:27;93726.91;;;19.08;70.52
6150;BME280;3106;42.670;23.318;2022-11-20T00:17:54;93722.72;;;19.04;69.31
6150;BME280;3106;42.670;23.318;2022-11-20T00:20:21;93708.97;;;19.18;68.21
6150;BME280;3106;42.670;23.318;2022-11-20T00:22:51;93672.00;;;19.04;67.67
6150;BME280;3106;42.670;23.318;2022-11-20T00:25:18;93697.19;;;19.28;67.53
6150;BME280;3106;42.670;23.318;2022-11-20T00:27:45;93651.59;;;19.00;65.76
6150;BME280;3106;42.670;23.318;2022-11-20T00:30:13;93704.66;;;19.43;65.01
6150;BME280;3106;42.670;23.318;2022-11-20T00:32:40;93686.28;;;19.54;63.25
6150;BME280;3106;42.670;23.318;2022-11-20T00:35:07;93675.88;;;19.49;64.12
6150;BME280;3106;42.670;23.318;2022-11-20T00:37:34;93649.91;;;19.29;65.01
6150;BME280;3106;42.670;23.318;2022-11-20T00:40:09;93674.84;;;19.43;65.56
6150;BME280;3106;42.670;23.318;2022-11-20T00:42:36;93645.47;;;19.19;64.69
6150;BME280;3106;42.670;23.318;2022-11-20T00:45:04;93662.19;;;19.37;65.31
6150;BME280;3106;42.670;23.318;2022-11-20T00:47:32;93678.84;;;19.35;64.80
6150;BME280;3106;42.670;23.318;2022-11-20T00:49:59;93704.00;;;19.59;63.25
6150;BME280;3106;42.670;23.318;2022-11-20T00:52:26;93744.25;;;19.60;63.66
6150;BME280;3106;42.670;23.318;2022-11-20T00:54:53;93693.78;;;19.66;62.35
6150;BME280;3106;42.670;23.318;2022-11-20T00:57:24;93634.38;;;19.33;63.20
6150;BME280;3106;42.670;23.318;2022-11-20T00:59:53;93712.47;;;19.61;63.55
6150;BME280;3106;42.670;23.318;2022-11-20T01:02:20;93678.63;;;19.69;62.49
6150;BME280;3106;42.670;23.318;2022-11-20T01:04:48;93643.22;;;19.37;63.03
6150;BME280;3106;42.670;23.318;2022-11-20T01:07:15;93710.22;;;19.79;63.37
6150;BME280;3106;42.670;23.318;2022-11-20T01:09:42;93660.19;;;19.41;62.82
6150;BME280;3106;42.670;23.318;2022-11-20T01:12:09;93683.06;;;19.59;63.62
6150;BME280;3106;42.670;23.318;2022-11-20T01:14:38;93614.69;;;19.29;62.90
6150;BME280;3106;42.670;23.318;2022-11-20T01:17:04;93658.66;;;19.59;63.85
6150;BME280;3106;42.670;23.318;2022-11-20T01:19:32;93695.66;;;19.69;63.34
6150;BME280;3106;42.670;23.318;2022-11-20T01:21:59;93630.75;;;19.39;63.66
6150;BME280;3106;42.670;23.318;2022-11-20T01:24:26;93670.44;;;19.49;63.67
6150;BME280;3106;42.670;23.318;2022-11-20T01:26:53;93669.03;;;19.64;63.49
6150;BME280;3106;42.670;23.318;2022-11-20T01:29:21;93650.22;;;19.34;63.14
6150;BME280;3106;42.670;23.318;2022-11-20T01:31:50;93634.31;;;19.36;62.60
6150;BME280;3106;42.670;23.318;2022-11-20T01:34:19;93655.94;;;19.59;63.80
6150;BME280;3106;42.670;23.318;2022-11-20T01:36:48;93639.03;;;19.52;64.07
6150;BME280;3106;42.670;23.318;2022-11-20T01:39:17;93633.75;;;19.45;62.88
6150;BME280;3106;42.670;23.318;2022-11-20T01:41:45;93637.88;;;19.53;63.69
6150;BME280;3106;42.670;23.318;2022-11-20T01:44:52;93689.31;;;19.56;64.33
6150;BME280;3106;42.670;23.318;2022-11-20T01:47:35;93686.50;;;19.40;64.67
6150;BME280;3106;42.670;23.318;2022-11-20T01:50:13;93631.16;;;19.18;64.48
6150;BME280;3106;42.670;23.318;2022-11-20T01:52:46;93674.31;;;19.29;63.23
6150;BME280;3106;42.670;23.318;2022-11-20T01:55:20;93616.16;;;19.33;63.69
6150;BME280;3106;42.670;23.318;2022-11-20T01:57:48;93653.72;;;19.35;63.74
6150;BME280;3106;42.670;23.318;2022-11-20T02:00:17;93596.06;;;18.88;63.91
6150;BME280;3106;42.670;23.318;2022-11-20T02:02:49;93669.53;;;19.36;64.26
6150;BME280;3106;42.670;23.318;2022-11-20T02:05:22;93673.84;;;19.11;63.71
6150;BME280;3106;42.670;23.318;2022-11-20T02:07:50;93607.13;;;19.20;61.02
6150;BME280;3106;42.670;23.318;2022-11-20T02:10:18;93597.13;;;19.17;61.84
6150;BME280;3106;42.670;23.318;2022-11-20T02:12:45;93691.19;;;19.40;63.64
6150;BME280;3106;42.670;23.318;2022-11-20T02:15:35;93678.66;;;19.46;62.67
6150;BME280;3106;42.670;23.318;2022-11-20T02:18:05;93625.75;;;19.15;62.88
6150;BME280;3106;42.670;23.318;2022-11-20T02:20:35;93635.44;;;19.16;62.73
6150;BME280;3106;42.670;23.318;2022-11-20T02:23:05;93677.28;;;19.38;63.02
6150;BME280;3106;42.670;23.318;2022-11-20T02:25:41;93609.47;;;18.95;63.66
6150;BME280;3106;42.670;23.318;2022-11-20T02:28:10;93670.78;;;19.32;63.13
6150;BME280;3106;42.670;23.318;2022-11-20T02:30:37;93641.75;;;19.32;62.75
6150;BME280;3106;42.670;23.318;2022-11-20T02:33:04;93636.03;;;19.27;63.57
6150;BME280;3106;42.670;23.318;2022-11-20T02:35:44;93637.34;;;19.19;63.89
6150;BME280;3106;42.670;23.318;2022-11-20T02:38:13;93669.94;;;19.12;64.42
6150;BME280;3106;42.670;23.318;2022-11-20T02:40:42;93683.84;;;19.17;64.81
6150;BME280;3106;42.670;23.318;2022-11-20T02:43:10;93663.94;;;19.01;65.19
6150;BME280;3106;42.670;23.318;2022-11-20T02:45:37;93665.69;;;18.88;65.83
6150;BME280;3106;42.670;23.318;2022-11-20T02:48:06;93669.13;;;18.92;65.59
6150;BME280;3106;42.670;23.318;2022-11-20T02:50:36;93663.88;;;18.81;66.17
6150;BME280;3106;42.670;23.318;2022-11-20T02:53:03;93673.81;;;18.88;66.30
6150;BME280;3106;42.670;23.318;2022-11-20T02:55:31;93717.25;;;19.07;67.38
6150;BME280;3106;42.670;23.318;2022-11-20T02:57:59;93696.94;;;18.96;67.54
6150;BME280;3106;42.670;23.318;2022-11-20T03:00:27;93653.06;;;18.81;68.14
6150;BME280;3106;42.670;23.318;2022-11-20T03:02:54;93687.19;;;18.98;68.44
6150;BME280;3106;42.670;23.318;2022-11-20T03:05:21;93652.03;;;18.72;68.79
6150;BME280;3106;42.670;23.318;2022-11-20T03:07:48;93686.41;;;18.75;69.27
6150;BME280;3106;42.670;23.318;2022-11-20T03:10:16;93698.16;;;18.91;69.60
6150;BME280;3106;42.670;23.318;2022-11-20T03:12:43;93690.97;;;18.81;70.04
6150;BME280;3106;42.670;23.318;2022-11-20T03:15:12;93679.88;;;18.72;69.79
6150;BME280;3106;42.670;23.318;2022-11-20T03:17:39;93719.13;;;18.87;70.25
6150;BME280;3106;42.670;23.318;2022-11-20T03:20:08;93647.56;;;18.35;70.50
6150;BME280;3106;42.670;23.318;2022-11-20T03:22:35;93695.41;;;18.68;70.44
6150;BME280;3106;42.670;23.318;2022-11-20T03:25:03;93717.59;;;18.60;71.31
6150;BME280;3106;42.670;23.318;2022-11-20T03:27:32;93672.44;;;18.53;71.07
6150;BME280;3106;42.670;23.318;2022-11-20T03:30:00;93708.38;;;18.54;70.96
6150;BME280;3106;42.670;23.318;2022-11-20T03:32:35;93718.84;;;18.52;71.23
6150;BME280;3106;42.670;23.318;2022-11-20T03:35:03;93692.03;;;18.34;71.14
6150;BME280;3106;42.670;23.318;2022-11-20T03:37:30;93726.09;;;18.62;70.82
6150;BME280;3106;42.670;23.318;2022-11-20T03:39:57;93699.16;;;18.51;71.11
6150;BME280;3106;42.670;23.318;2022-11-20T03:42:24;93725.31;;;18.61;70.31
6150;BME280;3106;42.670;23.318;2022-11-20T03:45:09;93726.84;;;18.62;70.37
6150;BME280;3106;42.670;23.318;2022-11-20T03:47:37;93749.78;;;18.54;71.12
6150;BME280;3106;42.670;23.318;2022-11-20T03:50:07;93758.72;;;18.78;70.03
6150;BME280;3106;42.670;23.318;2022-11-20T03:52:40;93759.13;;;18.76;70.38
6150;BME280;3106;42.670;23.318;2022-11-20T03:55:07;93704.34;;;18.65;70.79
6150;BME280;3106;42.670;23.318;2022-11-20T03:57:35;93703.22;;;18.36;71.14
6150;BME280;3106;42.670;23.318;2022-11-20T04:00:05;93733.94;;;18.53;71.07
6150;BME280;3106;42.670;23.318;2022-11-20T04:02:38;93648.06;;;17.97;70.88
6150;BME280;3106;42.670;23.318;2022-11-20T04:05:08;93735.97;;;18.45;70.29
6150;BME280;3106;42.670;23.318;2022-11-20T04:07:36;93750.00;;;18.67;70.50
6150;BME280;3106;42.670;23.318;2022-11-20T04:13:24;93726.88;;;18.59;69.86
6150;BME280;3106;42.670;23.318;2022-11-20T04:15:57;93751.25;;;18.59;70.62
6150;BME280;3106;42.670;23.318;2022-11-20T04:18:25;93705.66;;;18.27;70.56
6150;BME280;3106;42.670;23.318;2022-11-20T04:20:52;93751.22;;;18.62;71.76
6150;BME280;3106;42.670;23.318;2022-11-20T04:23:19;93703.41;;;18.19;71.12
6150;BME280;3106;42.670;23.318;2022-11-20T04:25:46;93680.13;;;17.99;71.04
6150;BME280;3106;42.670;23.318;2022-11-20T04:28:13;93704.00;;;18.04;71.49
6150;BME280;3106;42.670;23.318;2022-11-20T04:30:40;93750.50;;;18.28;71.82
6150;BME280;3106;42.670;23.318;2022-11-20T04:33:07;93757.78;;;18.35;71.68
6150;BME280;3106;42.670;23.318;2022-11-20T04:35:36;93764.00;;;18.32;72.20
6150;BME280;3106;42.670;23.318;2022-11-20T04:38:04;93693.50;;;17.79;72.62
6150;BME280;3106;42.670;23.318;2022-11-20T04:40:31;93712.22;;;17.97;72.72
6150;BME280;3106;42.670;23.318;2022-11-20T04:42:58;93737.75;;;18.29;72.60
6150;BME280;3106;42.670;23.318;2022-11-20T04:45:24;93749.66;;;18.35;72.86
6150;BME280;3106;42.670;23.318;2022-11-20T04:47:52;93683.00;;;17.85;73.49
6150;BME280;3106;42.670;23.318;2022-11-20T04:50:19;93730.00;;;18.31;72.30
6150;BME280;3106;42.670;23.318;2022-11-20T04:52:48;93731.19;;;18.27;72.27
6150;BME280;3106;42.670;23.318;2022-11-20T04:55:16;93726.16;;;18.28;72.85
6150;BME280;3106;42.670;23.318;2022-11-20T04:58:03;93726.94;;;18.25;72.45
6150;BME280;3106;42.670;23.318;2022-11-20T05:00:48;93720.25;;;18.37;72.11
6150;BME280;3106;42.670;23.318;2022-11-20T05:03:17;93706.13;;;18.19;72.03
6150;BME280;3106;42.670;23.318;2022-11-20T05:05:43;93687.53;;;18.21;71.54
6150;BME280;3106;42.670;23.318;2022-11-20T05:08:12;93662.78;;;17.96;71.71
6150;BME280;3106;42.670;23.318;2022-11-20T05:10:40;93646.22;;;17.91;71.44
6150;BME280;3106;42.670;23.318;2022-11-20T05:13:07;93686.72;;;18.27;71.53
6150;BME280;3106;42.670;23.318;2022-11-20T05:15:34;93706.63;;;18.40;71.98
6150;BME280;3106;42.670;23.318;2022-11-20T05:18:01;93682.09;;;18.24;72.73
6150;BME280;3106;42.670;23.318;2022-11-20T05:20:29;93695.63;;;18.24;73.00
6150;BME280;3106;42.670;23.318;2022-11-20T05:22:56;93658.44;;;18.02;72.90
6150;BME280;3106;42.670;23.318;2022-11-20T05:25:25;93656.44;;;18.06;72.93
6150;BME280;3106;42.670;23.318;2022-11-20T05:27:53;93680.84;;;18.32;73.46
6150;BME280;3106;42.670;23.318;2022-11-20T05:30:20;93671.84;;;18.13;73.82
6150;BME280;3106;42.670;23.318;2022-11-20T05:32:47;93666.78;;;18.15;73.50
6150;BME280;3106;42.670;23.318;2022-11-20T05:35:14;93602.47;;;17.69;73.49
6150;BME280;3106;42.670;23.318;2022-11-20T05:37:41;93674.41;;;17.93;73.64
6150;BME280;3106;42.670;23.318;2022-11-20T05:40:11;93712.34;;;18.16;72.89
6150;BME280;3106;42.670;23.318;2022-11-20T05:42:47;93643.94;;;17.89;72.92
6150;BME280;3106;42.670;23.318;2022-11-20T05:45:21;93706.50;;;18.21;72.90
6150;BME280;3106;42.670;23.318;2022-11-20T05:47:51;93685.75;;;18.11;72.48
6150;BME280;3106;42.670;23.318;2022-11-20T05:50:20;93658.94;;;17.94;72.78
6150;BME280;3106;42.670;23.318;2022-11-20T05:52:47;93690.88;;;18.06;73.13
6150;BME280;3106;42.670;23.318;2022-11-20T05:55:14;93678.78;;;17.84;73.56
6150;BME280;3106;42.670;23.318;2022-11-20T05:57:43;93644.09;;;17.75;73.99
6150;BME280;3106;42.670;23.318;2022-11-20T06:00:12;93740.94;;;18.17;74.09
6150;BME280;3106;42.670;23.318;2022-11-20T06:02:39;93703.97;;;18.07;73.51
6150;BME280;3106;42.670;23.318;2022-11-20T06:05:07;93731.25;;;18.20;73.69
6150;BME280;3106;42.670;23.318;2022-11-20T06:07:34;93677.31;;;17.76;75.33
6150;BME280;3106;42.670;23.318;2022-11-20T06:13:25;93717.16;;;18.02;77.03
6150;BME280;3106;42.670;23.318;2022-11-20T06:15:54;93681.69;;;17.66;78.91
6150;BME280;3106;42.670;23.318;2022-11-20T06:18:22;93667.88;;;17.57;79.83
6150;BME280;3106;42.670;23.318;2022-11-20T06:20:59;93693.38;;;17.56;80.60
6150;BME280;3106;42.670;23.318;2022-11-20T06:23:28;93664.22;;;17.37;80.55
6150;BME280;3106;42.670;23.318;2022-11-20T06:25:56;93708.38;;;17.61;80.39
6150;BME280;3106;42.670;23.318;2022-11-20T06:28:25;93705.38;;;17.52;80.97
6150;BME280;3106;42.670;23.318;2022-11-20T06:30:52;93738.72;;;17.79;81.03
6150;BME280;3106;42.670;23.318;2022-11-20T06:33:19;93721.53;;;17.59;80.11
6150;BME280;3106;42.670;23.318;2022-11-20T06:35:46;93698.28;;;17.65;80.56
6150;BME280;3106;42.670;23.318;2022-11-20T06:38:13;93665.47;;;17.33;81.07
6150;BME280;3106;42.670;23.318;2022-11-20T06:40:41;93669.41;;;17.21;81.73
6150;BME280;3106;42.670;23.318;2022-11-20T06:43:08;93692.91;;;17.24;81.87
6150;BME280;3106;42.670;23.318;2022-11-20T06:45:38;93690.13;;;17.35;79.85
6150;BME280;3106;42.670;23.318;2022-11-20T06:48:05;93755.28;;;17.81;80.41
6150;BME280;3106;42.670;23.318;2022-11-20T06:50:34;93778.31;;;17.96;80.60
6150;BME280;3106;42.670;23.318;2022-11-20T06:53:01;93763.56;;;18.00;79.90
6150;BME280;3106;42.670;23.318;2022-11-20T06:55:29;93756.97;;;18.05;79.24
6150;BME280;3106;42.670;23.318;2022-11-20T06:57:57;93751.72;;;18.21;78.48
6150;BME280;3106;42.670;23.318;2022-11-20T07:00:24;93752.00;;;18.33;76.46
6150;BME280;3106;42.670;23.318;2022-11-20T07:02:53;93767.81;;;18.34;76.38
6150;BME280;3106;42.670;23.318;2022-11-20T07:05:20;93737.03;;;18.22;75.58
6150;BME280;3106;42.670;23.318;2022-11-20T07:07:48;93725.88;;;18.16;75.43
6150;BME280;3106;42.670;23.318;2022-11-20T07:10:16;93730.19;;;18.14;71.31
6150;BME280;3106;42.670;23.318;2022-11-20T07:12:49;93762.81;;;18.63;70.00
6150;BME280;3106;42.670;23.318;2022-11-20T07:15:17;93699.78;;;18.32;69.83
6150;BME280;3106;42.670;23.318;2022-11-20T07:17:44;93760.41;;;18.68;70.24
6150;BME280;3106;42.670;23.318;2022-11-20T07:20:14;93763.56;;;18.63;70.60
6150;BME280;3106;42.670;23.318;2022-11-20T07:22:44;93761.41;;;18.81;70.17
6150;BME280;3106;42.670;23.318;2022-11-20T07:25:14;93734.59;;;18.60;71.18
6150;BME280;3106;42.670;23.318;2022-11-20T07:27:48;93768.75;;;18.81;70.81
6150;BME280;3106;42.670;23.318;2022-11-20T07:30:30;93765.91;;;18.61;72.09
6150;BME280;3106;42.670;23.318;2022-11-20T07:32:58;93777.00;;;18.70;72.01
6150;BME280;3106;42.670;23.318;2022-11-20T07:35:50;93730.00;;;18.31;72.12
6150;BME280;3106;42.670;23.318;2022-11-20T07:38:20;93762.13;;;18.55;71.42
6150;BME280;3106;42.670;23.318;2022-11-20T07:40:47;93784.75;;;18.72;71.37
6150;BME280;3106;42.670;23.318;2022-11-20T07:43:27;93746.88;;;18.38;72.84
6150;BME280;3106;42.670;23.318;2022-11-20T07:46:04;93791.72;;;18.69;73.11
6150;BME280;3106;42.670;23.318;2022-11-20T07:48:43;93798.16;;;18.52;74.07
6150;BME280;3106;42.670;23.318;2022-11-20T07:51:13;93766.16;;;18.44;73.66
6150;BME280;3106;42.670;23.318;2022-11-20T07:53:41;93734.69;;;18.27;74.16
6150;BME280;3106;42.670;23.318;2022-11-20T07:56:10;93763.78;;;18.49;71.77
6150;BME280;3106;42.670;23.318;2022-11-20T07:58:41;93702.22;;;17.94;72.01
6150;BME280;3106;42.670;23.318;2022-11-20T08:01:13;93787.06;;;18.43;70.69
6150;BME280;3106;42.670;23.318;2022-11-20T08:03:40;93776.84;;;18.54;71.37
6150;BME280;3106;42.670;23.318;2022-11-20T08:06:10;93750.94;;;18.20;72.45
6150;BME280;3106;42.670;23.318;2022-11-20T08:09:00;93714.69;;;18.14;72.12
6150;BME280;3106;42.670;23.318;2022-11-20T08:11:29;93755.69;;;18.46;72.63
6150;BME280;3106;42.670;23.318;2022-11-20T08:14:13;93795.59;;;18.68;72.51
6150;BME280;3106;42.670;23.318;2022-11-20T08:16:45;93702.16;;;18.30;72.89
6150;BME280;3106;42.670;23.318;2022-11-20T08:19:20;93701.34;;;18.33;72.17
6150;BME280;3106;42.670;23.318;2022-11-20T08:21:49;93777.31;;;18.76;71.50
6150;BME280;3106;42.670;23.318;2022-11-20T08:24:32;93768.88;;;18.70;71.49
6150;BME280;3106;42.670;23.318;2022-11-20T08:27:11;93789.31;;;18.78;71.47
6150;BME280;3106;42.670;23.318;2022-11-20T08:29:45;93749.53;;;18.45;72.21
6150;BME280;3106;42.670;23.318;2022-11-20T08:32:15;93785.19;;;18.67;71.63
6150;BME280;3106;42.670;23.318;2022-11-20T08:34:56;93783.97;;;18.71;72.18
6150;BME280;3106;42.670;23.318;2022-11-20T08:37:24;93741.06;;;18.70;71.71
6150;BME280;3106;42.670;23.318;2022-11-20T08:40:14;93792.41;;;19.03;71.66
6150;BME280;3106;42.670;23.318;2022-11-20T08:43:33;93746.97;;;18.61;71.16
6150;BME280;3106;42.670;23.318;2022-11-20T08:46:15;93744.28;;;18.31;72.56
6150;BME280;3106;42.670;23.318;2022-11-20T09:34:07;93809.78;;;15.88;97.69
6150;BME280;3106;42.670;23.318;2022-11-20T09:36:35;93797.50;;;15.70;98.60
6150;BME280;3106;42.670;23.318;2022-11-20T09:39:02;93797.47;;;15.73;99.53
6150;BME280;3106;42.670;23.318;2022-11-20T09:41:54;93744.41;;;15.49;100.00
6150;BME280;3106;42.670;23.318;2022-11-20T09:44:40;93762.78;;;15.82;100.00
6150;BME280;3106;42.670;23.318;2022-11-20T09:47:18;93789.66;;;16.14;100.00
6150;BME280;3106;42.670;23.318;2022-11-20T09:50:01;93773.75;;;16.40;100.00
6150;BME280;3106;42.670;23.318;2022-11-20T09:52:37;93721.41;;;16.24;100.00
6150;BME280;3106;42.670;23.318;2022-11-20T09:55:13;93772.88;;;16.61;99.98
6150;BME280;3106;42.670;23.318;2022-11-20T09:57:46;93791.16;;;16.93;99.75
6150;BME280;3106;42.670;23.318;2022-11-20T10:00:16;93782.94;;;17.14;99.26
6150;BME280;3106;42.670;23.318;2022-11-20T10:02:49;93769.16;;;17.46;97.17
6150;BME280;3106;42.670;23.318;2022-11-20T10:05:30;93780.38;;;17.81;95.26
6150;BME280;3106;42.670;23.318;2022-11-20T10:08:14;93722.16;;;17.36;94.39
6150;BME280;3106;42.670;23.318;2022-11-20T10:10:45;93792.53;;;18.03;95.90
6150;BME280;3106;42.670;23.318;2022-11-20T10:13:24;93722.94;;;18.04;95.33
6150;BME280;3106;42.670;23.318;2022-11-20T10:16:03;93750.09;;;18.60;93.93
6150;BME280;3106;42.670;23.318;2022-11-20T10:18:49;93715.44;;;18.48;93.21
6150;BME280;3106;42.670;23.318;2022-11-20T10:21:28;93758.53;;;18.35;91.34
6150;BME280;3106;42.670;23.318;2022-11-20T10:24:23;93778.34;;;18.25;90.06
6150;BME280;3106;42.670;23.318;2022-11-20T10:27:14;93763.78;;;17.79;93.48
6150;BME280;3106;42.670;23.318;2022-11-20T10:29:59;93684.09;;;16.73;96.46
6150;BME280;3106;42.670;23.318;2022-11-20T10:32:35;93720.53;;;16.95;96.60
6150;BME280;3106;42.670;23.318;2022-11-20T10:35:14;93778.81;;;17.47;96.18
6150;BME280;3106;42.670;23.318;2022-11-20T10:37:54;93743.03;;;17.29;96.50
6150;BME280;3106;42.670;23.318;2022-11-20T10:40:28;93781.78;;;17.59;95.94
6150;BME280;3106;42.670;23.318;2022-11-20T10:43:03;93790.69;;;17.56;95.77
6150;BME280;3106;42.670;23.318;2022-11-20T10:46:02;93777.63;;;17.48;97.15
6150;BME280;3106;42.670;23.318;2022-11-20T10:48:31;93735.13;;;17.08;97.38
6150;BME280;3106;42.670;23.318;2022-11-20T10:51:14;93696.06;;;16.72;98.49
6150;BME280;3106;42.670;23.318;2022-11-20T10:53:56;93727.28;;;16.73;98.62
6150;BME280;3106;42.670;23.318;2022-11-20T10:56:31;93751.41;;;16.97;99.14
6150;BME280;3106;42.670;23.318;2022-11-20T10:59:32;93730.59;;;16.94;99.21
6150;BME280;3106;42.670;23.318;2022-11-20T11:02:19;93777.38;;;16.81;100.00
6150;BME280;3106;42.670;23.318;2022-11-20T21:35:24;93495.31;;;10.92;100.00
6150;BME280;3106;42.670;23.318;2022-11-20T21:37:51;93530.63;;;11.05;100.00
6150;BME280;3106;42.670;23.318;2022-11-20T21:40:25;93556.81;;;11.25;100.00
6150;BME280;3106;42.670;23.318;2022-11-20T21:43:05;93521.44;;;11.02;100.00
6150;BME280;3106;42.670;23.318;2022-11-20T21:48:45;93466.41;;;11.01;100.00
6150;BME280;3106;42.670;23.318;2022-11-20T21:51:16;93495.72;;;11.31;100.00
6150;BME280;3106;42.670;23.318;2022-11-20T21:54:24;93474.63;;;11.22;100.00
6150;BME280;3106;42.670;23.318;2022-11-20T21:57:13;93469.28;;;11.22;100.00
6150;BME280;3106;42.670;23.318;2022-11-20T22:00:20;93433.06;;;10.92;100.00
6150;BME280;3106;42.670;23.318;2022-11-20T22:03:21;93452.75;;;11.13;100.00
6150;BME280;3106;42.670;23.318;2022-11-20T22:06:14;93447.34;;;11.06;100.00
6150;BME280;3106;42.670;23.318;2022-11-20T22:09:00;93424.25;;;10.88;100.00
6150;BME280;3106;42.670;23.318;2022-11-20T22:11:33;93449.28;;;11.09;100.00
6150;BME280;3106;42.670;23.318;2022-11-20T22:14:04;93425.03;;;10.92;100.00
6150;BME280;3106;42.670;23.318;2022-11-20T22:16:47;93393.66;;;10.85;100.00
6150;BME280;3106;42.670;23.318;2022-11-20T22:19:32;93416.34;;;11.02;100.00
6150;BME280;3106;42.670;23.318;2022-11-20T22:22:01;93385.63;;;10.82;100.00
6150;BME280;3106;42.670;23.318;2022-11-20T22:24:38;93407.47;;;10.91;100.00
6150;BME280;3106;42.670;23.318;2022-11-20T22:31:07;93343.31;;;10.51;100.00
6150;BME280;3106;42.670;23.318;2022-11-20T22:33:55;93376.06;;;10.81;100.00
6150;BME280;3106;42.670;23.318;2022-11-20T22:36:43;93369.81;;;10.70;100.00
6150;BME280;3106;42.670;23.318;2022-11-20T22:39:33;93358.38;;;10.69;100.00
6150;BME280;3106;42.670;23.318;2022-11-20T22:42:23;93357.75;;;10.83;100.00
6150;BME280;3106;42.670;23.318;2022-11-20T22:45:07;93314.38;;;10.60;100.00
6150;BME280;3106;42.670;23.318;2022-11-20T22:47:46;93302.88;;;10.56;100.00
6150;BME280;3106;42.670;23.318;2022-11-20T22:50:16;93291.56;;;10.69;100.00
6150;BME280;3106;42.670;23.318;2022-11-20T22:52:54;93290.03;;;10.72;100.00
6150;BME280;3106;42.670;23.318;2022-11-20T22:55:31;93273.59;;;10.70;100.00
6150;BME280;3106;42.670;23.318;2022-11-20T22:58:36;93278.28;;;10.83;100.00
6150;BME280;3106;42.670;23.318;2022-11-20T23:04:10;93196.94;;;10.34;100.00
6150;BME280;3106;42.670;23.318;2022-11-20T23:07:09;93187.09;;;10.42;100.00
6150;BME280;3106;42.670;23.318;2022-11-20T23:10:25;93263.09;;;10.94;100.00
